Amity, Georgia
Current Conditions -  °F | °C
As of 5:35 PM on Friday 31 Oct 2014 (Local Time) from KHQU Reporting Station
Scattered Clouds Scattered Clouds  
Wind Chill: 66°   Ceiling: Unl
Heat Index: 66°   Visibility: 10mi
Dew Point: 52°   Wind: 6mph
Humidity: 60%   Direction: 270°W
Pressure: 29.85"   Gusts: NA
Location:  33.7816°N, 82.4511°W
Report Text: KHQU 312135Z AUTO 27005KT 10SM SCT110 19/11 A2985 RMK AO1 T01900111
Loading
Personal Weather Stations






























Interactive Weather Map
Tropical Storm Tracking
New forecast layout! Learn more

10-Day Weather Forecast

Advertisements
Track Severe Weather on mobile